createdAt,value
2018-10-19T01:31:51.331Z,47.00
2018-10-19T01:34:19.794Z,46.20
2018-10-19T01:36:48.371Z,45.80
2018-10-19T01:39:18.576Z,45.70
2018-10-19T01:41:46.995Z,45.70
2018-10-19T01:44:15.412Z,45.80
2018-10-19T01:46:47.948Z,45.70
2018-10-19T01:49:16.874Z,45.70
2018-10-19T01:51:45.292Z,45.80
2018-10-19T01:54:14.107Z,45.80
2018-10-19T01:56:42.820Z,45.70
2018-10-19T01:59:11.317Z,45.70
2018-10-19T02:01:39.727Z,45.60
2018-10-19T02:04:08.179Z,45.70
2018-10-19T02:06:36.598Z,45.70
2018-10-19T02:09:06.443Z,45.70
2018-10-19T02:11:35.103Z,45.70
2018-10-19T02:14:03.526Z,45.80
2018-10-19T02:16:32.062Z,45.70
2018-10-19T02:19:00.465Z,45.70
2018-10-19T02:21:28.988Z,45.80
2018-10-19T02:23:57.412Z,45.60
2018-10-19T02:26:25.874Z,45.60
2018-10-19T02:28:54.349Z,45.70
2018-10-19T02:31:22.787Z,45.70
2018-10-19T02:33:51.220Z,45.70
2018-10-19T02:36:19.624Z,45.80
2018-10-19T02:38:48.197Z,45.80
2018-10-19T02:41:16.658Z,45.80
2018-10-19T02:43:45.092Z,45.80
2018-10-19T02:46:13.507Z,45.80
2018-10-19T02:48:41.934Z,45.80
2018-10-19T02:51:10.384Z,45.80
2018-10-19T02:53:38.760Z,45.80
2018-10-19T02:56:07.203Z,45.80
2018-10-19T02:58:35.633Z,45.80
2018-10-19T03:01:04.151Z,45.80
2018-10-19T03:03:32.576Z,45.90
2018-10-19T03:06:01.031Z,45.80
2018-10-19T03:08:29.434Z,45.80
2018-10-19T03:10:57.964Z,45.80
2018-10-19T03:13:26.454Z,45.90
2018-10-19T03:15:54.869Z,45.90
2018-10-19T03:18:24.076Z,45.90
2018-10-19T03:20:52.500Z,46.00
2018-10-19T03:23:21.013Z,46.00
2018-10-19T03:25:49.414Z,45.90
2018-10-19T03:28:17.950Z,45.90
2018-10-19T03:30:46.379Z,45.90
2018-10-19T03:33:15.261Z,45.90
2018-10-19T03:35:43.784Z,46.00
2018-10-19T03:38:12.175Z,45.90
2018-10-19T03:40:40.680Z,45.90
2018-10-19T03:43:09.124Z,45.90
2018-10-19T03:45:37.740Z,45.90
2018-10-19T03:48:06.156Z,45.90
2018-10-19T03:50:34.558Z,46.00
2018-10-19T03:53:03.002Z,46.00
2018-10-19T03:55:31.448Z,45.90
2018-10-19T03:57:59.871Z,45.90
2018-10-19T05:29:29.464Z,45.90
2018-10-19T05:31:58.050Z,44.80
2018-10-19T05:34:26.478Z,45.10
2018-10-19T05:36:54.960Z,45.20
2018-10-19T07:00:57.959Z,45.20
2018-10-19T07:13:19.159Z,45.80
2018-10-19T07:15:47.774Z,46.50
2018-10-19T07:18:16.186Z,45.90
2018-10-19T07:23:12.973Z,46.00
2018-10-19T07:25:41.396Z,45.60
2018-10-19T07:28:10.084Z,45.90
2018-10-19T07:30:38.860Z,45.90
2018-10-19T07:33:07.294Z,45.90
2018-10-19T07:35:36.632Z,46.00
2018-10-19T07:38:05.668Z,46.00
2018-10-19T07:40:34.040Z,46.00
2018-10-19T07:43:03.011Z,46.00
2018-10-19T07:45:32.254Z,45.50
2018-10-19T07:48:00.826Z,46.00
2018-10-19T07:50:29.259Z,46.10
2018-10-19T07:52:57.797Z,46.30
2018-10-19T07:55:26.278Z,46.00
2018-10-19T07:57:54.770Z,45.80
2018-10-19T08:00:23.315Z,46.20
2018-10-19T08:02:51.846Z,46.30
2018-10-19T08:05:20.311Z,46.30
2018-10-19T08:07:48.922Z,46.30
2018-10-19T08:12:46.401Z,46.30
2018-10-19T08:15:14.913Z,46.60
2018-10-19T08:17:43.466Z,46.30
2018-10-19T08:20:12.028Z,46.30
2018-10-19T08:22:40.474Z,46.40
2018-10-19T08:25:09.054Z,46.70
2018-10-19T08:32:34.052Z,46.40
2018-10-19T08:35:02.740Z,46.10
2018-10-19T08:37:31.357Z,46.60
2018-10-19T08:39:59.851Z,46.60
2018-10-19T08:42:28.312Z,46.10
2018-10-19T08:44:56.796Z,46.70
2018-10-19T08:47:25.320Z,46.70
2018-10-19T08:49:53.797Z,46.70
2018-10-19T08:52:22.231Z,46.90
2018-10-19T08:54:50.787Z,46.80
2018-10-19T08:57:19.261Z,46.80
2018-10-19T08:59:47.803Z,47.00
2018-10-19T09:02:16.371Z,47.00
2018-10-19T09:04:44.833Z,47.10
2018-10-19T09:07:13.359Z,47.20
2018-10-19T09:09:42.242Z,47.40
2018-10-19T09:12:10.769Z,47.20
2018-10-19T09:14:49.224Z,47.30
2018-10-19T09:22:15.147Z,47.40
2018-10-19T09:24:43.641Z,48.10
2018-10-19T09:27:12.756Z,47.40
2018-10-19T09:29:41.157Z,47.40
2018-10-19T09:32:09.747Z,47.30
2018-10-19T09:34:38.189Z,47.30
2018-10-19T09:37:07.541Z,47.90
2018-10-19T09:39:35.956Z,47.10
2018-10-19T09:42:04.434Z,47.20
2018-10-19T09:44:32.904Z,47.30
2018-10-19T09:47:01.359Z,47.30
2018-10-19T09:49:29.847Z,47.40
2018-10-19T09:51:58.308Z,47.40
2018-10-19T09:54:26.798Z,47.30
2018-10-19T09:56:55.229Z,47.40
2018-10-19T09:59:23.666Z,47.30
2018-10-19T10:01:52.084Z,47.30
2018-10-19T10:04:20.490Z,47.30
2018-10-19T10:06:48.924Z,47.30
2018-10-19T10:09:18.062Z,47.30
2018-10-19T10:11:46.496Z,47.30
2018-10-19T10:14:15.108Z,47.40
2018-10-19T10:16:43.572Z,47.20
2018-10-19T10:19:12.070Z,47.20
2018-10-19T10:21:40.619Z,47.20
2018-10-19T10:24:09.044Z,47.20
2018-10-19T10:26:37.543Z,47.80
2018-10-19T10:29:06.643Z,47.10
2018-10-19T10:31:35.344Z,47.20
2018-10-19T10:34:04.068Z,47.20
2018-10-19T10:36:32.634Z,47.10
2018-10-19T10:39:02.108Z,47.10
2018-10-19T10:41:30.434Z,47.10
2018-10-19T10:43:59.060Z,47.10
2018-10-19T10:46:27.483Z,47.10
2018-10-19T10:48:56.126Z,47.10
2018-10-19T10:51:24.530Z,47.10
2018-10-19T10:53:52.960Z,47.10
2018-10-19T10:56:21.734Z,47.10
2018-10-19T10:58:50.361Z,47.10
2018-10-19T11:01:18.804Z,47.10
2018-10-19T11:03:47.255Z,47.40
2018-10-19T11:06:15.827Z,47.10
2018-10-19T11:08:44.274Z,47.10
2018-10-19T11:11:13.859Z,47.10
2018-10-19T11:13:43.113Z,47.10
2018-10-19T11:16:12.691Z,47.00
2018-10-19T11:18:41.362Z,47.00
2018-10-19T11:21:10.895Z,47.00
2018-10-19T11:23:39.519Z,47.10
2018-10-19T11:26:07.931Z,47.10
2018-10-19T11:28:36.365Z,47.10
2018-10-19T11:31:05.408Z,47.10
2018-10-19T11:33:33.853Z,47.10
2018-10-19T11:36:03.199Z,47.00
2018-10-19T11:38:31.688Z,47.10
2018-10-19T11:41:00.144Z,47.10
2018-10-19T11:43:28.596Z,47.00
2018-10-19T11:45:57.030Z,47.00
2018-10-19T11:48:25.541Z,46.80
2018-10-19T11:50:53.975Z,46.80
2018-10-19T11:53:22.409Z,46.80
2018-10-19T11:55:50.859Z,46.80
2018-10-19T11:58:19.396Z,46.70
2018-10-19T12:00:47.780Z,46.50
2018-10-19T12:03:16.221Z,45.90
2018-10-19T12:05:44.664Z,46.20
2018-10-19T12:08:13.123Z,46.40
2018-10-19T12:10:41.652Z,46.60
2018-10-19T12:13:10.110Z,46.60
2018-10-19T12:15:38.605Z,46.60
2018-10-19T12:18:07.200Z,46.60
2018-10-19T12:20:35.662Z,46.70
2018-10-19T12:23:04.199Z,46.80
2018-10-19T12:25:32.761Z,46.80
2018-10-19T12:28:01.199Z,46.80
2018-10-19T12:30:29.671Z,46.90
2018-10-19T12:32:58.157Z,46.80
2018-10-19T12:35:26.688Z,46.80
2018-10-19T12:37:55.112Z,47.00
2018-10-19T12:40:23.603Z,47.10
2018-10-19T12:42:52.075Z,47.00
2018-10-19T12:46:33.829Z,47.10
2018-10-19T12:49:02.864Z,47.10
2018-10-19T12:51:31.342Z,47.10
2018-10-19T12:53:59.923Z,47.00
2018-10-19T12:56:28.385Z,46.90
2018-10-19T12:58:56.959Z,47.00
2018-10-19T13:01:26.767Z,47.00
2018-10-19T13:03:55.271Z,46.80
2018-10-19T13:06:23.796Z,46.80
2018-10-19T13:08:52.735Z,46.80
2018-10-19T13:11:23.573Z,46.80
2018-10-19T13:13:52.170Z,46.80
2018-10-19T13:16:20.639Z,46.80
2018-10-19T13:18:49.128Z,46.80
2018-10-19T13:21:17.566Z,47.10
2018-10-19T13:23:46.048Z,46.90
2018-10-19T13:26:14.483Z,46.80
2018-10-19T13:28:42.974Z,47.50
2018-10-19T13:31:11.403Z,46.80
2018-10-19T13:33:39.979Z,46.80
2018-10-19T13:36:08.494Z,46.80
2018-10-19T13:38:36.951Z,46.60
2018-10-19T13:41:05.650Z,46.60
2018-10-19T13:43:34.081Z,46.40
2018-10-19T13:46:02.626Z,46.40
2018-10-19T13:48:31.799Z,46.20
2018-10-19T13:51:00.534Z,46.20
2018-10-19T13:53:28.922Z,46.20
2018-10-19T13:55:57.345Z,46.00
2018-10-19T13:58:25.954Z,46.10
2018-10-19T14:00:54.351Z,46.10
2018-10-19T14:03:22.855Z,46.40
2018-10-19T14:05:51.347Z,46.20
2018-10-19T14:08:20.262Z,46.50
2018-10-19T14:10:48.839Z,46.60
2018-10-19T14:13:17.348Z,46.50
2018-10-19T14:15:45.877Z,46.40
2018-10-19T14:18:14.324Z,46.20
2018-10-19T14:20:42.772Z,46.40
2018-10-19T14:23:11.568Z,46.30
2018-10-19T14:25:40.041Z,46.50
2018-10-19T14:28:09.085Z,46.50
2018-10-19T14:30:37.744Z,46.70
2018-10-19T14:33:06.457Z,46.60
2018-10-19T14:35:34.847Z,46.80
2018-10-19T14:38:04.092Z,46.80
2018-10-19T14:40:33.227Z,46.60
